Time,TemperatureF,DewpointF,PressureIn,WindDirection,WindDirectionDegrees,WindSpeedMPH,WindSpeedGustMPH,Humidity,HourlyPrecipIn,Conditions,Clouds,dailyrainin,SoftwareType,DateUTC
2013-04-21 00:00:00,69.4,51.0,29.08,NNE,22,0.0,0.0,52,0.00,,,0.00,LWC V2.11 B50,2013-04-21 07:00:00,
2013-04-21 00:02:00,49.1,40.4,29.31,NNE,22,0.0,0.0,72,0.00,,,0.00,WeatherCatV1.10B1784,2013-04-21 07:02:00,
2013-04-21 00:07:00,49.1,40.4,29.31,NNE,22,0.0,0.0,72,0.00,,,0.00,WeatherCatV1.10B1784,2013-04-21 07:07:00,
2013-04-21 00:10:00,69.4,51.0,29.08,NNE,22,0.0,0.0,52,0.00,,,0.00,LWC V2.11 B50,2013-04-21 07:10:00,
2013-04-21 00:12:00,48.9,40.2,29.31,NNE,22,0.0,0.0,72,0.00,,,0.00,WeatherCatV1.10B1784,2013-04-21 07:12:00,
2013-04-21 00:17:00,48.7,40.1,29.31,NNE,22,0.0,0.0,72,0.00,,,0.00,WeatherCatV1.10B1784,2013-04-21 07:17:00,
2013-04-21 00:20:00,69.4,51.0,29.08,NNE,22,0.0,0.0,52,0.00,,,0.00,LWC V2.11 B50,2013-04-21 07:20:00,
2013-04-21 00:22:00,48.7,40.1,29.32,NNE,22,0.0,0.0,72,0.00,,,0.00,WeatherCatV1.10B1784,2013-04-21 07:22:00,
2013-04-21 00:27:00,48.7,40.1,29.32,NNE,22,0.0,0.0,72,0.00,,,0.00,WeatherCatV1.10B1784,2013-04-21 07:27:00,
2013-04-21 00:30:00,69.4,51.0,29.08,NNE,22,0.0,0.0,52,0.00,,,0.00,LWC V2.11 B50,2013-04-21 07:30:00,
2013-04-21 00:32:00,48.4,40.0,29.32,NNE,22,0.0,0.0,73,0.00,,,0.00,WeatherCatV1.10B1784,2013-04-21 07:32:00,
2013-04-21 00:37:00,48.4,40.0,29.32,NNE,22,0.0,0.0,73,0.00,,,0.00,WeatherCatV1.10B1784,2013-04-21 07:37:00,
2013-04-21 00:40:00,69.4,51.0,29.08,NNE,22,0.0,0.0,52,0.00,,,0.00,LWC V2.11 B50,2013-04-21 07:40:00,
2013-04-21 00:42:00,48.4,40.0,29.32,NNE,22,0.0,0.0,73,0.00,,,0.00,WeatherCatV1.10B1784,2013-04-21 07:42:00,
2013-04-21 00:47:00,48.0,39.7,29.33,NNE,22,0.0,0.0,73,0.00,,,0.00,WeatherCatV1.10B1784,2013-04-21 07:47:00,
2013-04-21 00:50:00,69.4,51.0,29.08,NNE,22,0.0,0.0,52,0.00,,,0.00,LWC V2.11 B50,2013-04-21 07:50:00,
2013-04-21 00:52:00,48.0,39.7,29.33,NNE,22,0.0,0.0,73,0.00,,,0.00,WeatherCatV1.10B1784,2013-04-21 07:52:00,
2013-04-21 00:57:00,48.0,39.7,29.32,NNE,22,0.0,0.0,73,0.00,,,0.00,WeatherCatV1.10B1784,2013-04-21 07:57:00,
2013-04-21 01:00:00,69.4,51.0,29.08,NNE,22,0.0,0.0,52,0.00,,,0.00,LWC V2.11 B50,2013-04-21 08:00:00,
2013-04-21 01:02:00,48.0,39.7,29.32,NNE,22,0.0,0.0,73,0.00,,,0.00,WeatherCatV1.10B1784,2013-04-21 08:02:00,
2013-04-21 01:07:00,47.8,39.5,29.32,NNE,22,0.0,0.0,73,0.00,,,0.00,WeatherCatV1.10B1784,2013-04-21 08:07:00,
2013-04-21 01:10:00,69.4,51.0,29.08,NNE,22,0.0,0.0,52,0.00,,,0.00,LWC V2.11 B50,2013-04-21 08:10:00,
2013-04-21 01:12:00,47.8,39.5,29.32,NNE,22,0.0,0.0,73,0.00,,,0.00,WeatherCatV1.10B1784,2013-04-21 08:12:00,
2013-04-21 01:17:00,47.7,39.4,29.32,NNE,22,0.0,0.0,73,0.00,,,0.00,WeatherCatV1.10B1784,2013-04-21 08:17:00,
2013-04-21 01:20:00,69.4,51.0,29.08,NNE,22,0.0,0.0,52,0.00,,,0.00,LWC V2.11 B50,2013-04-21 08:20:00,
2013-04-21 01:22:00,47.5,39.2,29.31,NNE,22,0.0,0.0,73,0.00,,,0.00,WeatherCatV1.10B1784,2013-04-21 08:22:00,
2013-04-21 01:27:00,47.5,39.2,29.31,NNE,22,0.0,0.0,73,0.00,,,0.00,WeatherCatV1.10B1784,2013-04-21 08:27:00,
2013-04-21 01:30:00,69.4,51.0,29.08,NNE,22,0.0,0.0,52,0.00,,,0.00,LWC V2.11 B50,2013-04-21 08:30:00,
2013-04-21 01:32:00,47.5,39.6,29.32,NNE,22,0.0,0.0,74,0.00,,,0.00,WeatherCatV1.10B1784,2013-04-21 08:32:00,
2013-04-21 01:37:00,47.3,39.4,29.31,NNE,22,0.0,0.0,74,0.00,,,0.00,WeatherCatV1.10B1784,2013-04-21 08:37:00,
2013-04-21 01:40:00,69.4,51.0,29.08,NNE,22,0.0,0.0,52,0.00,,,0.00,LWC V2.11 B50,2013-04-21 08:40:00,
2013-04-21 01:42:00,47.3,39.4,29.32,NNE,22,0.0,0.0,74,0.00,,,0.00,WeatherCatV1.10B1784,2013-04-21 08:42:00,
2013-04-21 01:47:00,47.3,39.4,29.31,NNE,22,0.0,0.0,74,0.00,,,0.00,WeatherCatV1.10B1784,2013-04-21 08:47:00,
2013-04-21 01:50:00,69.4,51.0,29.08,NNE,22,0.0,0.0,52,0.00,,,0.00,LWC V2.11 B50,2013-04-21 08:50:00,
2013-04-21 01:52:00,47.3,39.4,29.31,NNE,22,0.0,0.0,74,0.00,,,0.00,WeatherCatV1.10B1784,2013-04-21 08:52:00,
2013-04-21 01:57:00,47.1,39.2,29.31,NNE,22,0.0,0.0,74,0.00,,,0.00,WeatherCatV1.10B1784,2013-04-21 08:57:00,
2013-04-21 02:00:00,69.4,51.0,29.08,NNE,22,0.0,0.0,52,0.00,,,0.00,LWC V2.11 B50,2013-04-21 09:00:00,
2013-04-21 02:02:00,47.1,39.2,29.31,NNE,22,0.0,0.0,74,0.00,,,0.00,WeatherCatV1.10B1784,2013-04-21 09:02:00,
2013-04-21 02:07:00,47.3,39.4,29.31,NNE,22,0.0,0.0,74,0.00,,,0.00,WeatherCatV1.10B1784,2013-04-21 09:07:00,
2013-04-21 02:10:00,69.4,51.0,29.08,NNE,22,0.0,0.0,52,0.00,,,0.00,LWC V2.11 B50,2013-04-21 09:10:00,
2013-04-21 02:12:00,47.3,39.4,29.31,NNE,22,0.0,0.0,74,0.00,,,0.00,WeatherCatV1.10B1784,2013-04-21 09:12:00,
2013-04-21 02:17:00,47.3,39.4,29.31,NNE,22,0.0,0.0,74,0.00,,,0.00,WeatherCatV1.10B1784,2013-04-21 09:17:00,
2013-04-21 02:20:00,69.4,51.0,29.08,NNE,22,0.0,0.0,52,0.00,,,0.00,LWC V2.11 B50,2013-04-21 09:20:00,
2013-04-21 02:22:00,47.3,39.4,29.31,NNE,22,0.0,0.0,74,0.00,,,0.00,WeatherCatV1.10B1784,2013-04-21 09:22:00,
2013-04-21 02:27:00,47.3,39.7,29.31,NNE,22,0.0,0.0,75,0.00,,,0.00,WeatherCatV1.10B1784,2013-04-21 09:27:00,
2013-04-21 02:30:00,69.4,51.0,29.08,NNE,22,0.0,0.0,52,0.00,,,0.00,LWC V2.11 B50,2013-04-21 09:30:00,
2013-04-21 02:32:00,47.3,39.7,29.32,NNE,22,0.0,0.0,75,0.00,,,0.00,WeatherCatV1.10B1784,2013-04-21 09:32:00,
2013-04-21 02:37:00,47.3,39.7,29.32,NNE,22,0.0,0.0,75,0.00,,,0.00,WeatherCatV1.10B1784,2013-04-21 09:37:00,
2013-04-21 02:40:00,69.4,51.0,29.08,NNE,22,0.0,0.0,52,0.00,,,0.00,LWC V2.11 B50,2013-04-21 09:40:00,
2013-04-21 02:42:00,47.1,39.6,29.31,NNE,22,0.0,0.0,75,0.00,,,0.00,WeatherCatV1.10B1784,2013-04-21 09:42:00,
2013-04-21 02:47:00,47.1,39.6,29.31,NNE,22,0.0,0.0,75,0.00,,,0.00,WeatherCatV1.10B1784,2013-04-21 09:47:00,
2013-04-21 02:50:00,69.4,51.0,29.08,NNE,22,0.0,0.0,52,0.00,,,0.00,LWC V2.11 B50,2013-04-21 09:50:00,
2013-04-21 02:52:00,47.1,39.6,29.31,NNE,22,0.0,0.0,75,0.00,,,0.00,WeatherCatV1.10B1784,2013-04-21 09:52:00,
2013-04-21 02:57:00,47.1,39.6,29.31,NNE,22,0.0,0.0,75,0.00,,,0.00,WeatherCatV1.10B1784,2013-04-21 09:57:00,
2013-04-21 03:00:00,69.4,51.0,29.08,NNE,22,0.0,0.0,52,0.00,,,0.00,LWC V2.11 B50,2013-04-21 10:00:00,
2013-04-21 03:02:00,47.1,39.9,29.31,NNE,22,0.0,0.0,76,0.00,,,0.00,WeatherCatV1.10B1784,2013-04-21 10:02:00,
2013-04-21 03:07:00,47.1,39.9,29.31,NNE,22,0.0,0.0,76,0.00,,,0.00,WeatherCatV1.10B1784,2013-04-21 10:07:00,
2013-04-21 03:10:00,69.4,51.0,29.08,NNE,22,0.0,0.0,52,0.00,,,0.00,LWC V2.11 B50,2013-04-21 10:10:00,
2013-04-21 03:12:00,46.9,39.8,29.31,NNE,22,0.0,0.0,76,0.00,,,0.00,WeatherCatV1.10B1784,2013-04-21 10:12:00,
2013-04-21 03:17:00,46.9,39.8,29.30,NE,45,0.0,0.0,76,0.00,,,0.00,WeatherCatV1.10B1784,2013-04-21 10:17:00,
2013-04-21 03:20:00,69.4,51.0,29.08,NNE,22,0.0,0.0,52,0.00,,,0.00,LWC V2.11 B50,2013-04-21 10:20:00,
2013-04-21 03:22:00,46.9,39.8,29.30,NE,45,0.0,0.0,76,0.00,,,0.00,WeatherCatV1.10B1784,2013-04-21 10:22:00,
2013-04-21 03:27:00,46.9,39.8,29.30,NE,45,0.0,0.0,76,0.00,,,0.00,WeatherCatV1.10B1784,2013-04-21 10:27:00,
2013-04-21 03:30:00,69.4,51.0,29.08,NNE,22,0.0,0.0,52,0.00,,,0.00,LWC V2.11 B50,2013-04-21 10:30:00,
2013-04-21 03:32:00,46.9,39.8,29.30,NE,45,0.0,0.0,76,0.00,,,0.00,WeatherCatV1.10B1784,2013-04-21 10:32:00,
2013-04-21 03:37:00,46.9,39.8,29.30,NE,45,0.0,0.0,76,0.00,,,0.00,WeatherCatV1.10B1784,2013-04-21 10:37:00,
2013-04-21 03:40:00,69.4,51.0,29.08,NNE,22,0.0,0.0,52,0.00,,,0.00,LWC V2.11 B50,2013-04-21 10:40:00,
2013-04-21 03:42:00,46.8,39.6,29.30,NE,45,0.0,0.0,76,0.00,,,0.00,WeatherCatV1.10B1784,2013-04-21 10:42:00,
2013-04-21 03:47:00,46.8,39.6,29.30,NE,45,0.0,0.0,76,0.00,,,0.00,WeatherCatV1.10B1784,2013-04-21 10:47:00,
2013-04-21 03:50:00,69.4,51.0,29.08,NNE,22,0.0,0.0,52,0.00,,,0.00,LWC V2.11 B50,2013-04-21 10:50:00,
2013-04-21 03:52:00,46.8,39.6,29.30,NE,45,0.0,0.0,76,0.00,,,0.00,WeatherCatV1.10B1784,2013-04-21 10:52:00,
2013-04-21 03:57:00,46.8,39.6,29.30,NE,45,0.0,0.0,76,0.00,,,0.00,WeatherCatV1.10B1784,2013-04-21 10:57:00,
2013-04-21 04:00:00,69.4,51.0,29.08,NNE,22,0.0,0.0,52,0.00,,,0.00,LWC V2.11 B50,2013-04-21 11:00:00,
2013-04-21 04:02:00,46.8,39.6,29.30,NE,45,0.0,0.0,76,0.00,,,0.00,WeatherCatV1.10B1784,2013-04-21 11:02:00,
2013-04-21 04:07:00,46.8,39.6,29.30,NNE,22,0.0,0.0,76,0.00,,,0.00,WeatherCatV1.10B1784,2013-04-21 11:07:00,
2013-04-21 04:10:00,69.4,51.0,29.08,NNE,22,0.0,0.0,52,0.00,,,0.00,LWC V2.11 B50,2013-04-21 11:10:00,
2013-04-21 04:12:00,46.8,39.6,29.29,NNE,22,0.0,0.0,76,0.00,,,0.00,WeatherCatV1.10B1784,2013-04-21 11:12:00,
2013-04-21 04:17:00,46.6,39.4,29.29,NNE,22,0.0,0.0,76,0.00,,,0.00,WeatherCatV1.10B1784,2013-04-21 11:17:00,
2013-04-21 04:20:00,69.4,51.0,29.08,NNE,22,0.0,0.0,52,0.00,,,0.00,LWC V2.11 B50,2013-04-21 11:20:00,
2013-04-21 04:22:00,46.6,39.4,29.29,NNE,22,0.0,0.0,76,0.00,,,0.00,WeatherCatV1.10B1784,2013-04-21 11:22:00,
2013-04-21 04:27:00,46.6,39.4,29.29,NNE,22,0.0,0.0,76,0.00,,,0.00,WeatherCatV1.10B1784,2013-04-21 11:27:00,
2013-04-21 04:30:00,69.4,51.0,29.08,NNE,22,0.0,0.0,52,0.00,,,0.00,LWC V2.11 B50,2013-04-21 11:30:00,
2013-04-21 04:32:00,46.6,39.4,29.30,NNE,22,0.0,0.0,76,0.00,,,0.00,WeatherCatV1.10B1784,2013-04-21 11:32:00,
2013-04-21 04:37:00,46.6,39.4,29.30,NNE,22,0.0,0.0,76,0.00,,,0.00,WeatherCatV1.10B1784,2013-04-21 11:37:00,
2013-04-21 04:40:00,69.4,51.0,29.08,NNE,22,0.0,0.0,52,0.00,,,0.00,LWC V2.11 B50,2013-04-21 11:40:00,
2013-04-21 04:42:00,46.6,39.4,29.30,NNE,22,0.0,0.0,76,0.00,,,0.00,WeatherCatV1.10B1784,2013-04-21 11:42:00,
2013-04-21 04:47:00,46.6,39.1,29.30,NNE,22,0.0,0.0,75,0.00,,,0.00,WeatherCatV1.10B1784,2013-04-21 11:47:00,
2013-04-21 04:50:00,69.4,51.0,29.08,NNE,22,0.0,0.0,52,0.00,,,0.00,LWC V2.11 B50,2013-04-21 11:50:00,
2013-04-21 04:52:00,46.6,39.4,29.30,NE,45,0.0,0.0,76,0.00,,,0.00,WeatherCatV1.10B1784,2013-04-21 11:52:00,
2013-04-21 04:57:00,46.6,39.4,29.29,NE,45,0.0,0.0,76,0.00,,,0.00,WeatherCatV1.10B1784,2013-04-21 11:57:00,
2013-04-21 05:00:00,69.4,51.0,29.08,NNE,22,0.0,0.0,52,0.00,,,0.00,LWC V2.11 B50,2013-04-21 12:00:00,
2013-04-21 05:02:00,46.6,39.1,29.30,NE,45,0.0,0.0,75,0.00,,,0.00,WeatherCatV1.10B1784,2013-04-21 12:02:00,
2013-04-21 05:07:00,46.6,39.4,29.30,NE,45,0.0,0.0,76,0.00,,,0.00,WeatherCatV1.10B1784,2013-04-21 12:07:00,
2013-04-21 05:10:00,69.4,51.0,29.08,NNE,22,0.0,0.0,52,0.00,,,0.00,LWC V2.11 B50,2013-04-21 12:10:00,
2013-04-21 05:12:00,46.6,39.4,29.29,NE,45,0.0,0.0,76,0.00,,,0.00,WeatherCatV1.10B1784,2013-04-21 12:12:00,
2013-04-21 05:17:00,46.6,39.1,29.29,NE,45,0.0,0.0,75,0.00,,,0.00,WeatherCatV1.10B1784,2013-04-21 12:17:00,
2013-04-21 05:20:00,69.4,51.0,29.08,NNE,22,0.0,0.0,52,0.00,,,0.00,LWC V2.11 B50,2013-04-21 12:20:00,
2013-04-21 05:22:00,46.6,39.4,29.30,NE,45,0.0,0.0,76,0.00,,,0.00,WeatherCatV1.10B1784,2013-04-21 12:22:00,
2013-04-21 05:27:00,46.6,39.1,29.30,NE,45,0.0,0.0,75,0.00,,,0.00,WeatherCatV1.10B1784,2013-04-21 12:27:00,
2013-04-21 05:30:00,69.4,51.0,29.08,NNE,22,0.0,0.0,52,0.00,,,0.00,LWC V2.11 B50,2013-04-21 12:30:00,
2013-04-21 05:32:00,46.6,39.4,29.30,NE,45,0.0,0.0,76,0.00,,,0.00,WeatherCatV1.10B1784,2013-04-21 12:32:00,
2013-04-21 05:37:00,46.6,39.4,29.31,NE,45,0.0,0.0,76,0.00,,,0.00,WeatherCatV1.10B1784,2013-04-21 12:37:00,
2013-04-21 05:40:00,69.4,51.0,29.08,NNE,22,0.0,0.0,52,0.00,,,0.00,LWC V2.11 B50,2013-04-21 12:40:00,
2013-04-21 05:42:00,46.6,39.4,29.31,NE,45,0.0,0.0,76,0.00,,,0.00,WeatherCatV1.10B1784,2013-04-21 12:42:00,
2013-04-21 05:47:00,46.6,39.1,29.31,NE,45,0.0,0.0,75,0.00,,,0.00,WeatherCatV1.10B1784,2013-04-21 12:47:00,
2013-04-21 05:50:00,69.4,51.0,29.08,NNE,22,0.0,0.0,52,0.00,,,0.00,LWC V2.11 B50,2013-04-21 12:50:00,
2013-04-21 05:52:00,46.6,39.1,29.30,NE,45,0.0,0.0,75,0.00,,,0.00,WeatherCatV1.10B1784,2013-04-21 12:52:00,
2013-04-21 05:57:00,46.6,39.4,29.30,NE,45,0.0,0.0,76,0.00,,,0.00,WeatherCatV1.10B1784,2013-04-21 12:57:00,
2013-04-21 06:00:00,69.4,51.0,29.08,NNE,22,0.0,0.0,52,0.00,,,0.00,LWC V2.11 B50,2013-04-21 13:00:00,
2013-04-21 06:02:00,46.6,39.4,29.30,NE,45,0.0,0.0,76,0.00,,,0.00,WeatherCatV1.10B1784,2013-04-21 13:02:00,
2013-04-21 06:07:00,46.6,39.4,29.30,NE,45,0.0,0.0,76,0.00,,,0.00,WeatherCatV1.10B1784,2013-04-21 13:07:00,
2013-04-21 06:10:00,69.4,51.0,29.08,NNE,22,0.0,0.0,52,0.00,,,0.00,LWC V2.11 B50,2013-04-21 13:10:00,
2013-04-21 06:12:00,46.6,39.4,29.30,NE,45,0.0,0.0,76,0.00,,,0.00,WeatherCatV1.10B1784,2013-04-21 13:12:00,
2013-04-21 06:17:00,46.6,39.4,29.30,NE,45,0.0,0.0,76,0.00,,,0.00,WeatherCatV1.10B1784,2013-04-21 13:17:00,
2013-04-21 06:20:00,69.4,51.0,29.08,NNE,22,0.0,0.0,52,0.00,,,0.00,LWC V2.11 B50,2013-04-21 13:20:00,
2013-04-21 06:22:00,46.6,39.4,29.30,NE,45,0.0,0.0,76,0.00,,,0.00,WeatherCatV1.10B1784,2013-04-21 13:22:00,
2013-04-21 06:27:00,46.4,39.3,29.30,NE,45,0.0,0.0,76,0.00,,,0.00,WeatherCatV1.10B1784,2013-04-21 13:27:00,
2013-04-21 06:30:00,69.4,51.0,29.08,NNE,22,0.0,0.0,52,0.00,,,0.00,LWC V2.11 B50,2013-04-21 13:30:00,
2013-04-21 06:32:00,46.2,39.1,29.30,NE,45,0.0,0.0,76,0.00,,,0.00,WeatherCatV1.10B1784,2013-04-21 13:32:00,
2013-04-21 06:37:00,46.2,39.1,29.31,NE,45,0.0,0.0,76,0.00,,,0.00,WeatherCatV1.10B1784,2013-04-21 13:37:00,
2013-04-21 06:40:00,69.4,51.0,29.08,NNE,22,0.0,0.0,52,0.00,,,0.00,LWC V2.11 B50,2013-04-21 13:40:00,
2013-04-21 06:42:00,46.2,39.1,29.30,NE,45,0.0,0.0,76,0.00,,,0.00,WeatherCatV1.10B1784,2013-04-21 13:42:00,
2013-04-21 06:47:00,46.2,39.1,29.31,NE,45,0.0,0.0,76,0.00,,,0.00,WeatherCatV1.10B1784,2013-04-21 13:47:00,
2013-04-21 06:50:00,69.4,51.0,29.08,NNE,22,0.0,0.0,52,0.00,,,0.00,LWC V2.11 B50,2013-04-21 13:50:00,
2013-04-21 06:52:00,46.2,39.1,29.31,NE,45,0.0,0.0,76,0.00,,,0.00,WeatherCatV1.10B1784,2013-04-21 13:52:00,
2013-04-21 06:57:00,46.2,39.1,29.31,NE,45,0.0,0.0,76,0.00,,,0.00,WeatherCatV1.10B1784,2013-04-21 13:57:00,
2013-04-21 07:00:00,69.4,51.0,29.08,NNE,22,0.0,0.0,52,0.00,,,0.00,LWC V2.11 B50,2013-04-21 14:00:00,
2013-04-21 07:02:00,46.2,39.1,29.31,NE,45,0.0,0.0,76,0.00,,,0.00,WeatherCatV1.10B1784,2013-04-21 14:02:00,
2013-04-21 07:07:00,46.2,39.1,29.31,NE,45,0.0,0.0,76,0.00,,,0.00,WeatherCatV1.10B1784,2013-04-21 14:07:00,
2013-04-21 07:10:00,69.4,51.0,29.08,NNE,22,0.0,0.0,52,0.00,,,0.00,LWC V2.11 B50,2013-04-21 14:10:00,
2013-04-21 07:12:00,46.2,39.1,29.31,NE,45,0.0,0.0,76,0.00,,,0.00,WeatherCatV1.10B1784,2013-04-21 14:12:00,
2013-04-21 07:17:00,46.2,39.4,29.31,NE,45,0.0,0.0,77,0.00,,,0.00,WeatherCatV1.10B1784,2013-04-21 14:17:00,
2013-04-21 07:20:00,69.4,51.0,29.08,NNE,22,0.0,0.0,52,0.00,,,0.00,LWC V2.11 B50,2013-04-21 14:20:00,
2013-04-21 07:22:00,46.2,39.4,29.31,NE,45,0.0,0.0,77,0.00,,,0.00,WeatherCatV1.10B1784,2013-04-21 14:22:00,
2013-04-21 07:27:00,46.2,39.4,29.31,NE,45,0.0,0.0,77,0.00,,,0.00,WeatherCatV1.10B1784,2013-04-21 14:27:00,
2013-04-21 07:30:00,69.4,51.0,29.08,NNE,22,0.0,0.0,52,0.00,,,0.00,LWC V2.11 B50,2013-04-21 14:30:00,
2013-04-21 07:32:00,46.2,39.4,29.31,NE,45,0.0,0.0,77,0.00,,,0.00,WeatherCatV1.10B1784,2013-04-21 14:32:00,
2013-04-21 07:37:00,46.2,39.4,29.31,NE,45,0.0,0.0,77,0.00,,,0.00,WeatherCatV1.10B1784,2013-04-21 14:37:00,
2013-04-21 07:40:00,69.4,51.0,29.08,NNE,22,0.0,0.0,52,0.00,,,0.00,LWC V2.11 B50,2013-04-21 14:40:00,
2013-04-21 07:42:00,46.2,39.4,29.31,NE,45,0.0,0.0,77,0.00,,,0.00,WeatherCatV1.10B1784,2013-04-21 14:42:00,
2013-04-21 07:47:00,46.2,39.8,29.31,NE,45,0.0,0.0,78,0.00,,,0.00,WeatherCatV1.10B1784,2013-04-21 14:47:00,
2013-04-21 07:50:00,69.4,51.0,29.08,NNE,22,0.0,0.0,52,0.00,,,0.00,LWC V2.11 B50,2013-04-21 14:50:00,
2013-04-21 07:52:00,46.0,39.6,29.32,NE,45,0.0,0.0,78,0.00,,,0.00,WeatherCatV1.10B1784,2013-04-21 14:52:00,
2013-04-21 07:57:00,46.0,39.6,29.32,NE,45,0.0,0.0,78,0.00,,,0.00,WeatherCatV1.10B1784,2013-04-21 14:57:00,
2013-04-21 08:00:00,69.4,51.0,29.08,NNE,22,0.0,0.0,52,0.00,,,0.00,LWC V2.11 B50,2013-04-21 15:00:00,
2013-04-21 08:02:00,46.0,39.6,29.32,NE,45,0.0,0.0,78,0.00,,,0.00,WeatherCatV1.10B1784,2013-04-21 15:02:00,
2013-04-21 08:07:00,46.0,39.6,29.32,NE,45,0.0,0.0,78,0.00,,,0.00,WeatherCatV1.10B1784,2013-04-21 15:07:00,
2013-04-21 08:10:00,69.4,51.0,29.08,NNE,22,0.0,0.0,52,0.00,,,0.00,LWC V2.11 B50,2013-04-21 15:10:00,
2013-04-21 08:12:00,46.0,39.6,29.32,NE,45,0.0,0.0,78,0.00,,,0.00,WeatherCatV1.10B1784,2013-04-21 15:12:00,
2013-04-21 08:17:00,46.0,39.6,29.32,NE,45,0.0,0.0,78,0.00,,,0.00,WeatherCatV1.10B1784,2013-04-21 15:17:00,
2013-04-21 08:20:00,69.4,51.0,29.08,NNE,22,0.0,0.0,52,0.00,,,0.00,LWC V2.11 B50,2013-04-21 15:20:00,
2013-04-21 08:22:00,46.0,39.9,29.32,NE,45,0.0,0.0,79,0.00,,,0.00,WeatherCatV1.10B1784,2013-04-21 15:22:00,
2013-04-21 08:27:00,46.2,40.1,29.32,NE,45,0.0,0.0,79,0.00,,,0.00,WeatherCatV1.10B1784,2013-04-21 15:27:00,
2013-04-21 08:30:00,69.4,51.0,29.08,NNE,22,0.0,0.0,52,0.00,,,0.00,LWC V2.11 B50,2013-04-21 15:30:00,
2013-04-21 08:32:00,46.2,40.1,29.32,NE,45,0.0,0.0,79,0.00,,,0.00,WeatherCatV1.10B1784,2013-04-21 15:32:00,
2013-04-21 08:37:00,46.2,40.1,29.32,NE,45,0.0,0.0,79,0.00,,,0.00,WeatherCatV1.10B1784,2013-04-21 15:37:00,
2013-04-21 08:40:00,69.4,51.0,29.08,NNE,22,0.0,0.0,52,0.00,,,0.00,LWC V2.11 B50,2013-04-21 15:40:00,
2013-04-21 08:42:00,46.2,40.1,29.32,NE,45,0.0,0.0,79,0.00,,,0.00,WeatherCatV1.10B1784,2013-04-21 15:42:00,
2013-04-21 08:47:00,46.6,40.5,29.32,NE,45,0.0,0.0,79,0.00,,,0.00,WeatherCatV1.10B1784,2013-04-21 15:47:00,
2013-04-21 08:50:00,69.4,51.0,29.08,NNE,22,0.0,0.0,52,0.00,,,0.00,LWC V2.11 B50,2013-04-21 15:50:00,
2013-04-21 08:52:00,46.6,40.5,29.32,NE,45,0.0,0.0,79,0.00,,,0.00,WeatherCatV1.10B1784,2013-04-21 15:52:00,
2013-04-21 08:57:00,46.6,40.1,29.31,NE,45,0.0,0.0,78,0.00,,,0.00,WeatherCatV1.10B1784,2013-04-21 15:57:00,
2013-04-21 09:00:00,69.4,51.0,29.08,NNE,22,0.0,0.0,52,0.00,,,0.00,LWC V2.11 B50,2013-04-21 16:00:00,
2013-04-21 09:02:00,46.6,40.1,29.31,NE,45,0.0,0.0,78,0.00,,,0.00,WeatherCatV1.10B1784,2013-04-21 16:02:00,
2013-04-21 09:07:00,46.8,40.3,29.31,NE,45,0.0,0.0,78,0.00,,,0.00,WeatherCatV1.10B1784,2013-04-21 16:07:00,
2013-04-21 09:10:00,69.4,51.0,29.08,NNE,22,0.0,0.0,52,0.00,,,0.00,LWC V2.11 B50,2013-04-21 16:10:00,
2013-04-21 09:12:00,46.9,40.4,29.31,NE,45,0.0,0.0,78,0.00,,,0.00,WeatherCatV1.10B1784,2013-04-21 16:12:00,
2013-04-21 09:17:00,46.9,40.4,29.31,NE,45,0.0,0.0,78,0.00,,,0.00,WeatherCatV1.10B1784,2013-04-21 16:17:00,
2013-04-21 09:20:00,69.4,51.0,29.08,NNE,22,0.0,0.0,52,0.00,,,0.00,LWC V2.11 B50,2013-04-21 16:20:00,
2013-04-21 09:22:00,46.9,40.4,29.30,NE,45,0.0,0.0,78,0.00,,,0.00,WeatherCatV1.10B1784,2013-04-21 16:22:00,
2013-04-21 09:27:00,46.9,40.4,29.31,NE,45,0.0,0.0,78,0.00,,,0.00,WeatherCatV1.10B1784,2013-04-21 16:27:00,
2013-04-21 09:30:00,69.4,51.0,29.08,NNE,22,0.0,0.0,52,0.00,,,0.00,LWC V2.11 B50,2013-04-21 16:30:00,
2013-04-21 09:32:00,47.1,40.6,29.31,NE,45,0.0,0.0,78,0.00,,,0.00,WeatherCatV1.10B1784,2013-04-21 16:32:00,
2013-04-21 09:37:00,47.3,40.8,29.31,NE,45,0.0,0.0,78,0.00,,,0.00,WeatherCatV1.10B1784,2013-04-21 16:37:00,
2013-04-21 09:40:00,69.4,51.0,29.08,NNE,22,0.0,0.0,52,0.00,,,0.00,LWC V2.11 B50,2013-04-21 16:40:00,
2013-04-21 09:42:00,47.3,40.9,29.31,NE,45,0.0,0.0,78,0.00,,,0.00,WeatherCatV1.10B1784,2013-04-21 16:42:00,
2013-04-21 09:47:00,47.7,41.1,29.31,NE,45,0.0,0.0,78,0.00,,,0.00,WeatherCatV1.10B1784,2013-04-21 16:47:00,
2013-04-21 09:50:00,69.4,51.0,29.08,NNE,22,0.0,0.0,52,0.00,,,0.00,LWC V2.11 B50,2013-04-21 16:50:00,
2013-04-21 09:52:00,47.8,41.3,29.31,NE,45,0.0,0.0,78,0.00,,,0.00,WeatherCatV1.10B1784,2013-04-21 16:52:00,
2013-04-21 09:57:00,48.0,41.4,29.31,NE,45,0.0,0.0,78,0.00,,,0.00,WeatherCatV1.10B1784,2013-04-21 16:57:00,
2013-04-21 10:00:00,69.4,51.0,29.08,NNE,22,0.0,0.0,52,0.00,,,0.00,LWC V2.11 B50,2013-04-21 17:00:00,
2013-04-21 10:02:00,48.2,41.6,29.31,NE,45,0.0,0.0,78,0.00,,,0.00,WeatherCatV1.10B1784,2013-04-21 17:02:00,
2013-04-21 10:07:00,48.4,41.4,29.32,NE,45,0.0,0.0,77,0.00,,,0.00,WeatherCatV1.10B1784,2013-04-21 17:07:00,
2013-04-21 10:10:00,69.4,51.0,29.08,NNE,22,0.0,0.0,52,0.00,,,0.00,LWC V2.11 B50,2013-04-21 17:10:00,
2013-04-21 10:12:00,48.6,41.8,29.31,ESE,112,0.0,0.0,77,0.00,,,0.00,WeatherCatV1.10B1784,2013-04-21 17:12:00,
2013-04-21 10:17:00,48.7,41.8,29.31,ESE,112,0.0,0.0,77,0.00,,,0.00,WeatherCatV1.10B1784,2013-04-21 17:17:00,
2013-04-21 10:20:00,69.4,51.0,29.08,NNE,22,0.0,0.0,52,0.00,,,0.00,LWC V2.11 B50,2013-04-21 17:20:00,
2013-04-21 10:22:00,48.7,41.8,29.31,ESE,112,0.0,0.0,77,0.00,,,0.00,WeatherCatV1.10B1784,2013-04-21 17:22:00,
2013-04-21 10:27:00,48.9,42.0,29.31,ESE,112,0.0,0.0,77,0.00,,,0.00,WeatherCatV1.10B1784,2013-04-21 17:27:00,
2013-04-21 10:30:00,69.4,51.0,29.08,NNE,22,0.0,0.0,52,0.00,,,0.00,LWC V2.11 B50,2013-04-21 17:30:00,
2013-04-21 10:32:00,49.1,41.8,29.32,ENE,67,0.0,0.0,76,0.00,,,0.00,WeatherCatV1.10B1784,2013-04-21 17:32:00,
2013-04-21 10:37:00,49.1,41.8,29.32,ENE,67,0.0,0.0,76,0.00,,,0.00,WeatherCatV1.10B1784,2013-04-21 17:37:00,
2013-04-21 10:40:00,69.4,51.0,29.08,NNE,22,0.0,0.0,52,0.00,,,0.00,LWC V2.11 B50,2013-04-21 17:40:00,
2013-04-21 10:42:00,49.3,42.3,29.31,East,90,0.0,0.0,76,0.00,,,0.00,WeatherCatV1.10B1784,2013-04-21 17:42:00,
2013-04-21 10:47:00,49.6,42.3,29.31,SE,135,0.0,0.0,76,0.00,,,0.00,WeatherCatV1.10B1784,2013-04-21 17:47:00,
2013-04-21 10:50:00,69.4,51.0,29.08,NNE,22,0.0,0.0,52,0.00,,,0.00,LWC V2.11 B50,2013-04-21 17:50:00,
2013-04-21 10:52:00,49.8,42.5,29.31,SE,135,0.0,0.0,76,0.00,,,0.00,WeatherCatV1.10B1784,2013-04-21 17:52:00,
2013-04-21 10:57:00,50.2,42.5,29.31,SE,135,0.0,0.0,75,0.00,,,0.00,WeatherCatV1.10B1784,2013-04-21 17:57:00,
2013-04-21 11:00:00,69.4,51.0,29.08,NNE,22,0.0,0.0,52,0.00,,,0.00,LWC V2.11 B50,2013-04-21 18:00:00,
2013-04-21 11:02:00,50.5,42.9,29.31,SE,135,0.0,0.0,75,0.00,,,0.00,WeatherCatV1.10B1784,2013-04-21 18:02:00,
2013-04-21 11:07:00,50.7,42.7,29.31,SSE,157,0.0,0.0,74,0.00,,,0.00,WeatherCatV1.10B1784,2013-04-21 18:07:00,
2013-04-21 11:10:00,69.4,51.0,29.08,NNE,22,0.0,0.0,52,0.00,,,0.00,LWC V2.11 B50,2013-04-21 18:10:00,
2013-04-21 11:12:00,50.9,42.9,29.31,SE,135,0.0,0.0,74,0.00,,,0.00,WeatherCatV1.10B1784,2013-04-21 18:12:00,
2013-04-21 11:17:00,51.1,43.1,29.31,SE,135,0.0,0.0,74,0.00,,,0.00,WeatherCatV1.10B1784,2013-04-21 18:17:00,
2013-04-21 11:20:00,69.4,51.0,29.08,NNE,22,0.0,0.0,52,0.00,,,0.00,LWC V2.11 B50,2013-04-21 18:20:00,
2013-04-21 11:22:00,51.3,43.3,29.31,South,180,0.0,0.0,74,0.00,,,0.00,WeatherCatV1.10B1784,2013-04-21 18:22:00,
2013-04-21 11:30:00,69.4,51.0,29.08,NNE,22,0.0,0.0,52,0.00,,,0.00,LWC V2.11 B50,2013-04-21 18:30:00,
2013-04-21 11:32:00,52.0,43.6,29.31,South,180,0.0,0.0,73,0.00,,,0.00,WeatherCatV1.10B1784,2013-04-21 18:32:00,
2013-04-21 11:37:00,52.3,44.0,29.31,NNE,22,0.0,0.0,73,0.00,,,0.00,WeatherCatV1.10B1784,2013-04-21 18:37:00,
2013-04-21 11:40:00,69.4,51.0,29.08,NNE,22,0.0,0.0,52,0.00,,,0.00,LWC V2.11 B50,2013-04-21 18:40:00,
2013-04-21 11:42:00,52.5,44.3,29.31,NNE,22,0.0,0.0,72,0.00,,,0.00,WeatherCatV1.10B1784,2013-04-21 18:42:00,
2013-04-21 11:47:00,52.9,43.8,29.31,NNE,22,0.0,0.0,71,0.00,,,0.00,WeatherCatV1.10B1784,2013-04-21 18:47:00,
2013-04-21 11:50:00,69.4,51.0,29.08,NNE,22,0.0,0.0,52,0.00,,,0.00,LWC V2.11 B50,2013-04-21 18:50:00,
2013-04-21 11:52:00,53.2,44.4,29.31,SSE,157,0.0,0.0,72,0.00,,,0.00,WeatherCatV1.10B1784,2013-04-21 18:52:00,
2013-04-21 11:57:00,53.4,44.2,29.31,East,90,0.0,0.0,71,0.00,,,0.00,WeatherCatV1.10B1784,2013-04-21 18:57:00,
2013-04-21 12:00:00,69.4,51.0,29.08,NNE,22,0.0,0.0,52,0.00,,,0.00,LWC V2.11 B50,2013-04-21 19:00:00,
2013-04-21 12:02:00,53.8,44.6,29.30,East,90,0.0,0.0,71,0.00,,,0.00,WeatherCatV1.10B1784,2013-04-21 19:02:00,
2013-04-21 12:07:00,53.8,44.6,29.30,ESE,112,0.0,0.0,71,0.00,,,0.00,WeatherCatV1.10B1784,2013-04-21 19:07:00,
2013-04-21 12:10:00,69.4,51.0,29.08,NNE,22,0.0,0.0,52,0.00,,,0.00,LWC V2.11 B50,2013-04-21 19:10:00,
2013-04-21 12:12:00,54.0,44.4,29.31,NNE,22,0.0,0.0,70,0.00,,,0.00,WeatherCatV1.10B1784,2013-04-21 19:12:00,
2013-04-21 12:17:00,54.3,44.8,29.31,NNE,22,0.0,0.0,70,0.00,,,0.00,WeatherCatV1.10B1784,2013-04-21 19:17:00,
2013-04-21 12:20:00,69.4,51.0,29.08,NNE,22,0.0,0.0,52,0.00,,,0.00,LWC V2.11 B50,2013-04-21 19:20:00,
2013-04-21 12:22:00,54.5,45.0,29.30,NNE,22,0.0,0.0,70,0.00,,,0.00,WeatherCatV1.10B1784,2013-04-21 19:22:00,
2013-04-21 12:27:00,54.5,44.5,29.30,NNE,22,0.0,0.0,69,0.00,,,0.00,WeatherCatV1.10B1784,2013-04-21 19:27:00,
2013-04-21 12:30:00,69.4,51.0,29.08,NNE,22,0.0,0.0,52,0.00,,,0.00,LWC V2.11 B50,2013-04-21 19:30:00,
2013-04-21 12:32:00,54.7,44.7,29.29,NNE,22,0.0,0.0,69,0.00,,,0.00,WeatherCatV1.10B1784,2013-04-21 19:32:00,
2013-04-21 12:40:00,69.4,51.0,29.08,NNE,22,0.0,0.0,52,0.00,,,0.00,LWC V2.11 B50,2013-04-21 19:40:00,
2013-04-21 12:42:00,55.2,45.4,29.29,NNE,22,0.0,0.0,69,0.00,,,0.00,WeatherCatV1.10B1784,2013-04-21 19:42:00,
2013-04-21 12:47:00,55.8,45.8,29.29,SSE,157,0.0,0.0,69,0.00,,,0.00,WeatherCatV1.10B1784,2013-04-21 19:47:00,
2013-04-21 12:50:00,69.4,51.0,29.08,NNE,22,0.0,0.0,52,0.00,,,0.00,LWC V2.11 B50,2013-04-21 19:50:00,
2013-04-21 12:52:00,55.9,45.5,29.29,SE,135,0.0,0.0,68,0.00,,,0.00,WeatherCatV1.10B1784,2013-04-21 19:52:00,
2013-04-21 12:57:00,56.1,45.9,29.29,SSW,202,0.0,0.0,68,0.00,,,0.00,WeatherCatV1.10B1784,2013-04-21 19:57:00,
2013-04-21 13:00:00,69.4,51.0,29.08,NNE,22,0.0,0.0,52,0.00,,,0.00,LWC V2.11 B50,2013-04-21 20:00:00,
2013-04-21 13:02:00,56.7,46.2,29.29,SSW,202,0.0,0.0,68,0.00,,,0.00,WeatherCatV1.10B1784,2013-04-21 20:02:00,
2013-04-21 13:07:00,57.0,46.1,29.29,SSW,202,0.0,0.0,67,0.00,,,0.00,WeatherCatV1.10B1784,2013-04-21 20:07:00,
2013-04-21 13:10:00,69.4,51.0,29.08,NNE,22,0.0,0.0,52,0.00,,,0.00,LWC V2.11 B50,2013-04-21 20:10:00,
2013-04-21 13:12:00,57.4,46.5,29.29,SSW,202,0.0,0.0,67,0.00,,,0.00,WeatherCatV1.10B1784,2013-04-21 20:12:00,
2013-04-21 13:17:00,57.6,46.6,29.29,SSW,202,0.0,0.0,67,0.00,,,0.00,WeatherCatV1.10B1784,2013-04-21 20:17:00,
2013-04-21 13:20:00,69.4,51.0,29.08,NNE,22,0.0,0.0,52,0.00,,,0.00,LWC V2.11 B50,2013-04-21 20:20:00,
2013-04-21 13:22:00,57.7,46.4,29.29,SSW,202,0.0,0.0,66,0.00,,,0.00,WeatherCatV1.10B1784,2013-04-21 20:22:00,
2013-04-21 13:27:00,57.9,46.2,29.29,SW,225,0.0,0.0,65,0.00,,,0.00,WeatherCatV1.10B1784,2013-04-21 20:27:00,
2013-04-21 13:30:00,69.4,51.0,29.08,NNE,22,0.0,0.0,52,0.00,,,0.00,LWC V2.11 B50,2013-04-21 20:30:00,
2013-04-21 13:32:00,58.1,46.3,29.28,SSW,202,0.0,0.0,65,0.00,,,0.00,WeatherCatV1.10B1784,2013-04-21 20:32:00,
2013-04-21 13:37:00,58.3,46.1,29.28,SSW,202,0.0,0.0,64,0.00,,,0.00,WeatherCatV1.10B1784,2013-04-21 20:37:00,
2013-04-21 13:40:00,69.4,51.0,29.08,NNE,22,0.0,0.0,52,0.00,,,0.00,LWC V2.11 B50,2013-04-21 20:40:00,
2013-04-21 13:42:00,58.3,45.7,29.28,NNE,22,0.0,0.0,64,0.00,,,0.00,WeatherCatV1.10B1784,2013-04-21 20:42:00,
2013-04-21 13:47:00,58.6,46.5,29.28,WSW,247,0.0,0.0,64,0.00,,,0.00,WeatherCatV1.10B1784,2013-04-21 20:47:00,
2013-04-21 13:50:00,69.4,51.0,29.08,NNE,22,0.0,0.0,52,0.00,,,0.00,LWC V2.11 B50,2013-04-21 20:50:00,
2013-04-21 13:52:00,58.8,46.6,29.28,WSW,247,0.0,0.0,64,0.00,,,0.00,WeatherCatV1.10B1784,2013-04-21 20:52:00,
2013-04-21 13:57:00,58.8,46.6,29.28,SSW,202,0.0,0.0,64,0.00,,,0.00,WeatherCatV1.10B1784,2013-04-21 20:57:00,
2013-04-21 14:00:00,69.4,51.0,29.08,NNE,22,0.0,0.0,52,0.00,,,0.00,LWC V2.11 B50,2013-04-21 21:00:00,
2013-04-21 14:02:00,58.8,46.6,29.28,SW,225,0.0,0.0,64,0.00,,,0.00,WeatherCatV1.10B1784,2013-04-21 21:02:00,
2013-04-21 14:07:00,59.2,47.0,29.28,WSW,247,0.0,0.0,64,0.00,,,0.00,WeatherCatV1.10B1784,2013-04-21 21:07:00,
2013-04-21 14:10:00,69.4,51.0,29.08,NNE,22,0.0,0.0,52,0.00,,,0.00,LWC V2.11 B50,2013-04-21 21:10:00,
2013-04-21 14:12:00,59.5,47.2,29.27,WSW,247,0.0,0.0,64,0.00,,,0.00,WeatherCatV1.10B1784,2013-04-21 21:12:00,
2013-04-21 14:17:00,59.5,46.9,29.27,NNE,22,0.0,0.0,63,0.00,,,0.00,WeatherCatV1.10B1784,2013-04-21 21:17:00,
2013-04-21 14:20:00,69.4,51.0,29.08,NNE,22,0.0,0.0,52,0.00,,,0.00,LWC V2.11 B50,2013-04-21 21:20:00,
2013-04-21 14:22:00,59.7,47.1,29.27,West,270,0.0,0.0,63,0.00,,,0.00,WeatherCatV1.10B1784,2013-04-21 21:22:00,
2013-04-21 14:27:00,60.1,47.0,29.27,SW,225,0.0,0.0,62,0.00,,,0.00,WeatherCatV1.10B1784,2013-04-21 21:27:00,
2013-04-21 14:30:00,69.4,51.0,29.08,NNE,22,0.0,0.0,52,0.00,,,0.00,LWC V2.11 B50,2013-04-21 21:30:00,
2013-04-21 14:32:00,60.3,47.6,29.28,SW,225,0.0,0.0,63,0.00,,,0.00,WeatherCatV1.10B1784,2013-04-21 21:32:00,
2013-04-21 14:37:00,60.4,47.8,29.27,SE,135,0.0,0.0,63,0.00,,,0.00,WeatherCatV1.10B1784,2013-04-21 21:37:00,
2013-04-21 14:40:00,69.4,51.0,29.08,NNE,22,0.0,0.0,52,0.00,,,0.00,LWC V2.11 B50,2013-04-21 21:40:00,
2013-04-21 14:42:00,60.4,47.8,29.27,South,180,0.0,0.0,63,0.00,,,0.00,WeatherCatV1.10B1784,2013-04-21 21:42:00,
2013-04-21 14:47:00,60.4,47.4,29.27,ESE,112,0.0,0.0,62,0.00,,,0.00,WeatherCatV1.10B1784,2013-04-21 21:47:00,
2013-04-21 14:50:00,69.4,51.0,29.08,NNE,22,0.0,0.0,52,0.00,,,0.00,LWC V2.11 B50,2013-04-21 21:50:00,
2013-04-21 14:52:00,60.4,47.8,29.28,SE,135,0.0,0.0,63,0.00,,,0.00,WeatherCatV1.10B1784,2013-04-21 21:52:00,
2013-04-21 15:00:00,69.4,51.0,29.08,NNE,22,0.0,0.0,52,0.00,,,0.00,LWC V2.11 B50,2013-04-21 22:00:00,
2013-04-21 15:02:00,60.6,48.0,29.27,South,180,0.0,0.0,63,0.00,,,0.00,WeatherCatV1.10B1784,2013-04-21 22:02:00,
2013-04-21 15:07:00,60.6,48.0,29.27,ESE,112,0.0,0.0,63,0.00,,,0.00,WeatherCatV1.10B1784,2013-04-21 22:07:00,
2013-04-21 15:10:00,69.4,51.0,29.08,NNE,22,0.0,0.0,52,0.00,,,0.00,LWC V2.11 B50,2013-04-21 22:10:00,
2013-04-21 15:12:00,60.6,47.6,29.27,WSW,247,0.0,0.0,62,0.00,,,0.00,WeatherCatV1.10B1784,2013-04-21 22:12:00,
2013-04-21 15:17:00,60.4,47.4,29.27,WSW,247,0.0,0.0,62,0.00,,,0.00,WeatherCatV1.10B1784,2013-04-21 22:17:00,
2013-04-21 15:20:00,69.4,51.0,29.08,NNE,22,0.0,0.0,52,0.00,,,0.00,LWC V2.11 B50,2013-04-21 22:20:00,
2013-04-21 15:22:00,60.4,47.4,29.27,WSW,247,0.0,0.0,62,0.00,,,0.00,WeatherCatV1.10B1784,2013-04-21 22:22:00,
2013-04-21 15:27:00,60.4,47.4,29.27,SW,225,0.0,0.0,62,0.00,,,0.00,WeatherCatV1.10B1784,2013-04-21 22:27:00,
2013-04-21 15:30:00,69.4,51.0,29.08,NNE,22,0.0,0.0,52,0.00,,,0.00,LWC V2.11 B50,2013-04-21 22:30:00,
2013-04-21 15:32:00,60.4,47.4,29.27,SSW,202,0.0,0.0,62,0.00,,,0.00,WeatherCatV1.10B1784,2013-04-21 22:32:00,
2013-04-21 15:37:00,60.6,47.6,29.27,South,180,0.0,0.0,62,0.00,,,0.00,WeatherCatV1.10B1784,2013-04-21 22:37:00,
2013-04-21 15:40:00,69.4,51.0,29.08,NNE,22,0.0,0.0,52,0.00,,,0.00,LWC V2.11 B50,2013-04-21 22:40:00,
2013-04-21 15:42:00,60.4,47.4,29.26,ESE,112,0.0,0.0,62,0.00,,,0.00,WeatherCatV1.10B1784,2013-04-21 22:42:00,
2013-04-21 15:47:00,60.4,47.4,29.27,ESE,112,0.0,0.0,62,0.00,,,0.00,WeatherCatV1.10B1784,2013-04-21 22:47:00,
2013-04-21 15:50:00,69.4,51.0,29.08,NNE,22,0.0,0.0,52,0.00,,,0.00,LWC V2.11 B50,2013-04-21 22:50:00,
2013-04-21 15:52:00,60.6,47.6,29.26,SSW,202,0.0,0.0,62,0.00,,,0.00,WeatherCatV1.10B1784,2013-04-21 22:52:00,
2013-04-21 15:57:00,60.6,47.6,29.26,SSW,202,0.0,0.0,62,0.00,,,0.00,WeatherCatV1.10B1784,2013-04-21 22:57:00,
2013-04-21 16:00:00,69.4,51.0,29.08,NNE,22,0.0,0.0,52,0.00,,,0.00,LWC V2.11 B50,2013-04-21 23:00:00,
2013-04-21 16:02:00,60.4,47.8,29.26,SSW,202,0.0,0.0,63,0.00,,,0.00,WeatherCatV1.10B1784,2013-04-21 23:02:00,
2013-04-21 16:07:00,60.4,47.8,29.26,SSW,202,0.0,0.0,63,0.00,,,0.00,WeatherCatV1.10B1784,2013-04-21 23:07:00,
2013-04-21 16:10:00,69.4,51.0,29.08,NNE,22,0.0,0.0,52,0.00,,,0.00,LWC V2.11 B50,2013-04-21 23:10:00,
2013-04-21 16:12:00,60.4,47.8,29.26,SW,225,0.0,0.0,63,0.00,,,0.00,WeatherCatV1.10B1784,2013-04-21 23:12:00,
2013-04-21 16:17:00,60.4,47.8,29.26,SW,225,0.0,0.0,63,0.00,,,0.00,WeatherCatV1.10B1784,2013-04-21 23:17:00,
2013-04-21 16:20:00,69.4,51.0,29.08,NNE,22,0.0,0.0,52,0.00,,,0.00,LWC V2.11 B50,2013-04-21 23:20:00,
2013-04-21 16:22:00,60.4,47.8,29.26,SSW,202,0.0,0.0,63,0.00,,,0.00,WeatherCatV1.10B1784,2013-04-21 23:22:00,
2013-04-21 16:27:00,60.4,48.2,29.26,SW,225,0.0,0.0,64,0.00,,,0.00,WeatherCatV1.10B1784,2013-04-21 23:27:00,
2013-04-21 16:30:00,69.4,51.0,29.08,NNE,22,0.0,0.0,52,0.00,,,0.00,LWC V2.11 B50,2013-04-21 23:30:00,
2013-04-21 16:32:00,60.4,48.2,29.26,SSW,202,0.0,0.0,64,0.00,,,0.00,WeatherCatV1.10B1784,2013-04-21 23:32:00,
2013-04-21 16:37:00,60.4,48.2,29.26,SSW,202,0.0,0.0,64,0.00,,,0.00,WeatherCatV1.10B1784,2013-04-21 23:37:00,
2013-04-21 16:40:00,69.4,51.0,29.08,NNE,22,0.0,0.0,52,0.00,,,0.00,LWC V2.11 B50,2013-04-21 23:40:00,
2013-04-21 16:42:00,60.4,48.2,29.26,SSW,202,0.0,0.0,64,0.00,,,0.00,WeatherCatV1.10B1784,2013-04-21 23:42:00,
2013-04-21 16:47:00,60.4,48.2,29.26,SSW,202,0.0,0.0,64,0.00,,,0.00,WeatherCatV1.10B1784,2013-04-21 23:47:00,
2013-04-21 16:50:00,69.4,51.0,29.08,NNE,22,0.0,0.0,52,0.00,,,0.00,LWC V2.11 B50,2013-04-21 23:50:00,
2013-04-21 16:52:00,60.4,48.2,29.26,SSW,202,0.0,0.0,64,0.00,,,0.00,WeatherCatV1.10B1784,2013-04-21 23:52:00,
2013-04-21 16:57:00,60.4,48.2,29.26,SSE,157,0.0,0.0,64,0.00,,,0.00,WeatherCatV1.10B1784,2013-04-21 23:57:00,
2013-04-21 17:00:00,69.4,51.0,29.08,NNE,22,0.0,0.0,52,0.00,,,0.00,LWC V2.11 B50,2013-04-22 00:00:00,
2013-04-21 17:02:00,60.4,48.2,29.26,SSE,157,0.0,0.0,64,0.00,,,0.00,WeatherCatV1.10B1784,2013-04-22 00:02:00,
2013-04-21 17:07:00,60.4,48.2,29.26,SSE,157,0.0,0.0,64,0.00,,,0.00,WeatherCatV1.10B1784,2013-04-22 00:07:00,
2013-04-21 17:10:00,69.4,51.0,29.08,NNE,22,0.0,0.0,52,0.00,,,0.00,LWC V2.11 B50,2013-04-22 00:10:00,
2013-04-21 17:12:00,60.4,48.2,29.26,SSE,157,0.0,0.0,64,0.00,,,0.00,WeatherCatV1.10B1784,2013-04-22 00:12:00,
2013-04-21 17:17:00,60.4,48.2,29.26,SSE,157,0.0,0.0,64,0.00,,,0.00,WeatherCatV1.10B1784,2013-04-22 00:17:00,
2013-04-21 17:20:00,69.4,51.0,29.08,NNE,22,0.0,0.0,52,0.00,,,0.00,LWC V2.11 B50,2013-04-22 00:20:00,
2013-04-21 17:22:00,60.4,48.2,29.26,SSE,157,0.0,0.0,64,0.00,,,0.00,WeatherCatV1.10B1784,2013-04-22 00:22:00,
2013-04-21 17:27:00,60.4,47.8,29.26,SE,135,0.0,0.0,63,0.00,,,0.00,WeatherCatV1.10B1784,2013-04-22 00:27:00,
2013-04-21 17:30:00,69.4,51.0,29.08,NNE,22,0.0,0.0,52,0.00,,,0.00,LWC V2.11 B50,2013-04-22 00:30:00,
2013-04-21 17:32:00,60.1,47.9,29.26,SE,135,0.0,0.0,64,0.00,,,0.00,WeatherCatV1.10B1784,2013-04-22 00:32:00,
2013-04-21 17:37:00,60.1,47.9,29.26,SE,135,0.0,0.0,64,0.00,,,0.00,WeatherCatV1.10B1784,2013-04-22 00:37:00,
2013-04-21 17:40:00,69.4,51.0,29.08,NNE,22,0.0,0.0,52,0.00,,,0.00,LWC V2.11 B50,2013-04-22 00:40:00,
2013-04-21 17:42:00,60.1,47.9,29.25,SSE,157,0.0,0.0,64,0.00,,,0.00,WeatherCatV1.10B1784,2013-04-22 00:42:00,
2013-04-21 17:47:00,59.9,47.7,29.26,SSE,157,0.0,0.0,64,0.00,,,0.00,WeatherCatV1.10B1784,2013-04-22 00:47:00,
2013-04-21 17:50:00,69.4,51.0,29.08,NNE,22,0.0,0.0,52,0.00,,,0.00,LWC V2.11 B50,2013-04-22 00:50:00,
2013-04-21 17:52:00,59.9,47.7,29.25,SE,135,0.0,0.0,64,0.00,,,0.00,WeatherCatV1.10B1784,2013-04-22 00:52:00,
2013-04-21 17:57:00,59.7,47.9,29.25,SE,135,0.0,0.0,65,0.00,,,0.00,WeatherCatV1.10B1784,2013-04-22 00:57:00,
2013-04-21 18:00:00,69.4,51.0,29.08,NNE,22,0.0,0.0,52,0.00,,,0.00,LWC V2.11 B50,2013-04-22 01:00:00,
2013-04-21 18:02:00,59.7,47.9,29.25,SE,135,0.0,0.0,65,0.00,,,0.00,WeatherCatV1.10B1784,2013-04-22 01:02:00,
2013-04-21 18:07:00,59.7,47.9,29.25,SE,135,0.0,0.0,65,0.00,,,0.00,WeatherCatV1.10B1784,2013-04-22 01:07:00,
2013-04-21 18:10:00,69.4,51.0,29.08,NNE,22,0.0,0.0,52,0.00,,,0.00,LWC V2.11 B50,2013-04-22 01:10:00,
2013-04-21 18:12:00,59.5,47.8,29.25,SE,135,0.0,0.0,65,0.00,,,0.00,WeatherCatV1.10B1784,2013-04-22 01:12:00,
2013-04-21 18:17:00,59.5,47.8,29.25,SE,135,0.0,0.0,65,0.00,,,0.00,WeatherCatV1.10B1784,2013-04-22 01:17:00,
2013-04-21 18:20:00,69.4,51.0,29.08,NNE,22,0.0,0.0,52,0.00,,,0.00,LWC V2.11 B50,2013-04-22 01:20:00,
2013-04-21 18:22:00,59.5,47.8,29.25,SE,135,0.0,0.0,65,0.00,,,0.00,WeatherCatV1.10B1784,2013-04-22 01:22:00,
2013-04-21 18:27:00,59.4,47.6,29.25,ESE,112,0.0,0.0,65,0.00,,,0.00,WeatherCatV1.10B1784,2013-04-22 01:27:00,
2013-04-21 18:30:00,69.4,51.0,29.08,NNE,22,0.0,0.0,52,0.00,,,0.00,LWC V2.11 B50,2013-04-22 01:30:00,
2013-04-21 18:32:00,59.2,47.4,29.25,ESE,112,0.0,0.0,65,0.00,,,0.00,WeatherCatV1.10B1784,2013-04-22 01:32:00,
2013-04-21 18:37:00,59.2,47.4,29.25,ESE,112,0.0,0.0,65,0.00,,,0.00,WeatherCatV1.10B1784,2013-04-22 01:37:00,
2013-04-21 18:40:00,69.4,51.0,29.08,NNE,22,0.0,0.0,52,0.00,,,0.00,LWC V2.11 B50,2013-04-22 01:40:00,
2013-04-21 18:42:00,58.8,47.4,29.25,NE,45,0.0,0.0,66,0.00,,,0.00,WeatherCatV1.10B1784,2013-04-22 01:42:00,
2013-04-21 18:47:00,58.8,47.4,29.25,NE,45,0.0,0.0,66,0.00,,,0.00,WeatherCatV1.10B1784,2013-04-22 01:47:00,
2013-04-21 18:50:00,69.4,51.0,29.08,NNE,22,0.0,0.0,52,0.00,,,0.00,LWC V2.11 B50,2013-04-22 01:50:00,
2013-04-21 18:52:00,58.8,47.4,29.25,NE,45,0.0,0.0,66,0.00,,,0.00,WeatherCatV1.10B1784,2013-04-22 01:52:00,
2013-04-21 18:57:00,58.6,47.7,29.25,NE,45,0.0,0.0,67,0.00,,,0.00,WeatherCatV1.10B1784,2013-04-22 01:57:00,
2013-04-21 19:00:00,69.4,51.0,29.08,NNE,22,0.0,0.0,52,0.00,,,0.00,LWC V2.11 B50,2013-04-22 02:00:00,
2013-04-21 19:02:00,58.5,47.5,29.25,NE,45,0.0,0.0,67,0.00,,,0.00,WeatherCatV1.10B1784,2013-04-22 02:02:00,
2013-04-21 19:07:00,58.3,47.3,29.25,NE,45,0.0,0.0,67,0.00,,,0.00,WeatherCatV1.10B1784,2013-04-22 02:07:00,
2013-04-21 19:10:00,69.4,51.0,29.08,NNE,22,0.0,0.0,52,0.00,,,0.00,LWC V2.11 B50,2013-04-22 02:10:00,
2013-04-21 19:12:00,57.9,47.0,29.25,NE,45,0.0,0.0,67,0.00,,,0.00,WeatherCatV1.10B1784,2013-04-22 02:12:00,
2013-04-21 19:17:00,57.7,47.2,29.25,NE,45,0.0,0.0,68,0.00,,,0.00,WeatherCatV1.10B1784,2013-04-22 02:17:00,
2013-04-21 19:20:00,69.4,51.0,29.08,NNE,22,0.0,0.0,52,0.00,,,0.00,LWC V2.11 B50,2013-04-22 02:20:00,
2013-04-21 19:22:00,57.4,46.8,29.26,NE,45,0.0,0.0,68,0.00,,,0.00,WeatherCatV1.10B1784,2013-04-22 02:22:00,
2013-04-21 19:27:00,57.2,47.1,29.26,East,90,0.0,0.0,69,0.00,,,0.00,WeatherCatV1.10B1784,2013-04-22 02:27:00,
2013-04-21 19:30:00,69.4,51.0,29.08,NNE,22,0.0,0.0,52,0.00,,,0.00,LWC V2.11 B50,2013-04-22 02:30:00,
2013-04-21 19:32:00,57.0,46.9,29.26,East,90,0.0,0.0,69,0.00,,,0.00,WeatherCatV1.10B1784,2013-04-22 02:32:00,
2013-04-21 19:37:00,57.0,46.9,29.25,East,90,0.0,0.0,69,0.00,,,0.00,WeatherCatV1.10B1784,2013-04-22 02:37:00,
2013-04-21 19:40:00,69.4,51.0,29.08,NNE,22,0.0,0.0,52,0.00,,,0.00,LWC V2.11 B50,2013-04-22 02:40:00,
2013-04-21 19:42:00,56.8,47.2,29.25,NE,45,0.0,0.0,70,0.00,,,0.00,WeatherCatV1.10B1784,2013-04-22 02:42:00,
2013-04-21 19:47:00,56.5,46.8,29.25,NE,45,0.0,0.0,70,0.00,,,0.00,WeatherCatV1.10B1784,2013-04-22 02:47:00,
2013-04-21 19:50:00,69.4,51.0,29.08,NNE,22,0.0,0.0,52,0.00,,,0.00,LWC V2.11 B50,2013-04-22 02:50:00,
2013-04-21 19:52:00,56.3,47.0,29.25,NNE,22,0.0,0.0,71,0.00,,,0.00,WeatherCatV1.10B1784,2013-04-22 02:52:00,
2013-04-21 19:57:00,55.9,46.7,29.26,NE,45,0.0,0.0,71,0.00,,,0.00,WeatherCatV1.10B1784,2013-04-22 02:57:00,
2013-04-21 20:00:00,69.4,51.0,29.08,NNE,22,0.0,0.0,52,0.00,,,0.00,LWC V2.11 B50,2013-04-22 03:00:00,
2013-04-21 20:02:00,55.9,47.0,29.26,NE,45,0.0,0.0,72,0.00,,,0.00,WeatherCatV1.10B1784,2013-04-22 03:02:00,
2013-04-21 20:07:00,55.6,46.7,29.26,NE,45,0.0,0.0,72,0.00,,,0.00,WeatherCatV1.10B1784,2013-04-22 03:07:00,
2013-04-21 20:10:00,69.4,51.0,29.08,NNE,22,0.0,0.0,52,0.00,,,0.00,LWC V2.11 B50,2013-04-22 03:10:00,
2013-04-21 20:12:00,55.2,46.4,29.26,NE,45,0.0,0.0,72,0.00,,,0.00,WeatherCatV1.10B1784,2013-04-22 03:12:00,
2013-04-21 20:17:00,55.2,46.4,29.26,NE,45,0.0,0.0,72,0.00,,,0.00,WeatherCatV1.10B1784,2013-04-22 03:17:00,
2013-04-21 20:20:00,69.4,51.0,29.08,NNE,22,0.0,0.0,52,0.00,,,0.00,LWC V2.11 B50,2013-04-22 03:20:00,
2013-04-21 20:22:00,54.9,46.0,29.26,NNE,22,0.0,0.0,72,0.00,,,0.00,WeatherCatV1.10B1784,2013-04-22 03:22:00,
2013-04-21 20:27:00,54.5,46.0,29.26,ENE,67,0.0,0.0,73,0.00,,,0.00,WeatherCatV1.10B1784,2013-04-22 03:27:00,
2013-04-21 20:30:00,69.4,51.0,29.08,NNE,22,0.0,0.0,52,0.00,,,0.00,LWC V2.11 B50,2013-04-22 03:30:00,
2013-04-21 20:32:00,54.5,46.0,29.26,NNE,22,0.0,0.0,73,0.00,,,0.00,WeatherCatV1.10B1784,2013-04-22 03:32:00,
2013-04-21 20:37:00,54.3,45.8,29.26,NW,315,0.0,0.0,73,0.00,,,0.00,WeatherCatV1.10B1784,2013-04-22 03:37:00,
2013-04-21 20:40:00,69.4,51.0,29.08,NNE,22,0.0,0.0,52,0.00,,,0.00,LWC V2.11 B50,2013-04-22 03:40:00,
2013-04-21 20:42:00,54.1,45.7,29.26,NE,45,0.0,0.0,73,0.00,,,0.00,WeatherCatV1.10B1784,2013-04-22 03:42:00,
2013-04-21 20:47:00,54.0,45.8,29.27,NNE,22,0.0,0.0,74,0.00,,,0.00,WeatherCatV1.10B1784,2013-04-22 03:47:00,
2013-04-21 20:50:00,69.4,51.0,29.08,NNE,22,0.0,0.0,52,0.00,,,0.00,LWC V2.11 B50,2013-04-22 03:50:00,
2013-04-21 20:52:00,53.8,45.7,29.27,NNE,22,0.0,0.0,74,0.00,,,0.00,WeatherCatV1.10B1784,2013-04-22 03:52:00,
2013-04-21 20:57:00,53.6,45.5,29.27,NNE,22,0.0,0.0,74,0.00,,,0.00,WeatherCatV1.10B1784,2013-04-22 03:57:00,
2013-04-21 21:00:00,69.4,51.0,29.08,NNE,22,0.0,0.0,52,0.00,,,0.00,LWC V2.11 B50,2013-04-22 04:00:00,
2013-04-21 21:02:00,53.4,45.3,29.27,NNE,22,0.0,0.0,74,0.00,,,0.00,WeatherCatV1.10B1784,2013-04-22 04:02:00,
2013-04-21 21:07:00,53.4,45.7,29.27,NE,45,0.0,0.0,75,0.00,,,0.00,WeatherCatV1.10B1784,2013-04-22 04:07:00,
2013-04-21 21:10:00,69.4,51.0,29.08,NNE,22,0.0,0.0,52,0.00,,,0.00,LWC V2.11 B50,2013-04-22 04:10:00,
2013-04-21 21:12:00,53.2,45.5,29.28,NE,45,0.0,0.0,75,0.00,,,0.00,WeatherCatV1.10B1784,2013-04-22 04:12:00,
2013-04-21 21:17:00,52.9,45.5,29.28,NE,45,0.0,0.0,76,0.00,,,0.00,WeatherCatV1.10B1784,2013-04-22 04:17:00,
2013-04-21 21:20:00,69.4,51.0,29.08,NNE,22,0.0,0.0,52,0.00,,,0.00,LWC V2.11 B50,2013-04-22 04:20:00,
2013-04-21 21:22:00,52.7,45.4,29.28,NE,45,0.0,0.0,76,0.00,,,0.00,WeatherCatV1.10B1784,2013-04-22 04:22:00,
2013-04-21 21:27:00,52.3,45.0,29.28,NNE,22,0.0,0.0,76,0.00,,,0.00,WeatherCatV1.10B1784,2013-04-22 04:27:00,
2013-04-21 21:30:00,69.4,51.0,29.08,NNE,22,0.0,0.0,52,0.00,,,0.00,LWC V2.11 B50,2013-04-22 04:30:00,
2013-04-21 21:32:00,52.3,45.0,29.28,NNE,22,0.0,0.0,76,0.00,,,0.00,WeatherCatV1.10B1784,2013-04-22 04:32:00,
2013-04-21 21:37:00,52.3,45.4,29.28,NNE,22,0.0,0.0,77,0.00,,,0.00,WeatherCatV1.10B1784,2013-04-22 04:37:00,
2013-04-21 21:40:00,69.4,51.0,29.08,NNE,22,0.0,0.0,52,0.00,,,0.00,LWC V2.11 B50,2013-04-22 04:40:00,
2013-04-21 21:42:00,52.0,45.0,29.28,ENE,67,0.0,0.0,77,0.00,,,0.00,WeatherCatV1.10B1784,2013-04-22 04:42:00,
2013-04-21 21:47:00,51.6,45.0,29.28,ENE,67,0.0,0.0,78,0.00,,,0.00,WeatherCatV1.10B1784,2013-04-22 04:47:00,
2013-04-21 21:50:00,69.4,51.0,29.08,NNE,22,0.0,0.0,52,0.00,,,0.00,LWC V2.11 B50,2013-04-22 04:50:00,
2013-04-21 21:52:00,51.4,44.8,29.28,NE,45,0.0,0.0,78,0.00,,,0.00,WeatherCatV1.10B1784,2013-04-22 04:52:00,
2013-04-21 21:57:00,51.4,45.2,29.29,NE,45,0.0,0.0,79,0.00,,,0.00,WeatherCatV1.10B1784,2013-04-22 04:57:00,
2013-04-21 22:00:00,69.4,51.0,29.08,NNE,22,0.0,0.0,52,0.00,,,0.00,LWC V2.11 B50,2013-04-22 05:00:00,
2013-04-21 22:02:00,51.3,45.0,29.29,NE,45,0.0,0.0,79,0.00,,,0.00,WeatherCatV1.10B1784,2013-04-22 05:02:00,
2013-04-21 22:07:00,51.3,45.0,29.28,NE,45,0.0,0.0,79,0.00,,,0.00,WeatherCatV1.10B1784,2013-04-22 05:07:00,
2013-04-21 22:10:00,69.4,51.0,29.08,NNE,22,0.0,0.0,52,0.00,,,0.00,LWC V2.11 B50,2013-04-22 05:10:00,
2013-04-21 22:12:00,51.1,44.8,29.29,ENE,67,0.0,0.0,79,0.00,,,0.00,WeatherCatV1.10B1784,2013-04-22 05:12:00,
2013-04-21 22:17:00,51.1,44.8,29.29,ENE,67,0.0,0.0,79,0.00,,,0.00,WeatherCatV1.10B1784,2013-04-22 05:17:00,
2013-04-21 22:20:00,69.4,51.0,29.08,NNE,22,0.0,0.0,52,0.00,,,0.00,LWC V2.11 B50,2013-04-22 05:20:00,
2013-04-21 22:22:00,51.3,45.0,29.29,ENE,67,0.0,0.0,79,0.00,,,0.00,WeatherCatV1.10B1784,2013-04-22 05:22:00,
2013-04-21 22:27:00,51.1,44.8,29.29,NE,45,0.0,0.0,79,0.00,,,0.00,WeatherCatV1.10B1784,2013-04-22 05:27:00,
2013-04-21 22:30:00,69.4,51.0,29.08,NNE,22,0.0,0.0,52,0.00,,,0.00,LWC V2.11 B50,2013-04-22 05:30:00,
2013-04-21 22:32:00,51.1,44.8,29.29,NE,45,0.0,0.0,79,0.00,,,0.00,WeatherCatV1.10B1784,2013-04-22 05:32:00,
2013-04-21 22:37:00,50.9,44.6,29.29,NE,45,0.0,0.0,79,0.00,,,0.00,WeatherCatV1.10B1784,2013-04-22 05:37:00,
2013-04-21 22:40:00,69.4,51.0,29.08,NNE,22,0.0,0.0,52,0.00,,,0.00,LWC V2.11 B50,2013-04-22 05:40:00,
2013-04-21 22:42:00,50.7,44.4,29.29,NNE,22,0.0,0.0,79,0.00,,,0.00,WeatherCatV1.10B1784,2013-04-22 05:42:00,
2013-04-21 22:47:00,50.5,44.6,29.29,NNE,22,0.0,0.0,80,0.00,,,0.00,WeatherCatV1.10B1784,2013-04-22 05:47:00,
2013-04-21 22:50:00,69.4,51.0,29.08,NNE,22,0.0,0.0,52,0.00,,,0.00,LWC V2.11 B50,2013-04-22 05:50:00,
2013-04-21 22:52:00,50.5,44.6,29.29,NE,45,0.0,0.0,80,0.00,,,0.00,WeatherCatV1.10B1784,2013-04-22 05:52:00,
2013-04-21 23:00:00,69.4,51.0,29.08,NNE,22,0.0,0.0,52,0.00,,,0.00,LWC V2.11 B50,2013-04-22 06:00:00,
2013-04-21 23:02:00,50.4,44.4,29.29,NNE,22,0.0,0.0,80,0.00,,,0.00,WeatherCatV1.10B1784,2013-04-22 06:02:00,
2013-04-21 23:07:00,50.2,44.2,29.29,NNE,22,0.0,0.0,80,0.00,,,0.00,WeatherCatV1.10B1784,2013-04-22 06:07:00,
2013-04-21 23:10:00,69.4,51.0,29.08,NNE,22,0.0,0.0,52,0.00,,,0.00,LWC V2.11 B50,2013-04-22 06:10:00,
2013-04-21 23:12:00,50.2,44.2,29.30,NNE,22,0.0,0.0,80,0.00,,,0.00,WeatherCatV1.10B1784,2013-04-22 06:12:00,
2013-04-21 23:17:00,49.8,43.9,29.30,NNE,22,0.0,0.0,80,0.00,,,0.00,WeatherCatV1.10B1784,2013-04-22 06:17:00,
2013-04-21 23:20:00,69.4,51.0,29.08,NNE,22,0.0,0.0,52,0.00,,,0.00,LWC V2.11 B50,2013-04-22 06:20:00,
2013-04-21 23:22:00,49.6,43.7,29.30,NNE,22,0.0,0.0,80,0.00,,,0.00,WeatherCatV1.10B1784,2013-04-22 06:22:00,
2013-04-21 23:27:00,49.6,43.7,29.30,NNE,22,0.0,0.0,80,0.00,,,0.00,WeatherCatV1.10B1784,2013-04-22 06:27:00,
2013-04-21 23:30:00,69.4,51.0,29.08,NNE,22,0.0,0.0,52,0.00,,,0.00,LWC V2.11 B50,2013-04-22 06:30:00,
2013-04-21 23:32:00,49.6,43.7,29.30,NNE,22,0.0,0.0,80,0.00,,,0.00,WeatherCatV1.10B1784,2013-04-22 06:32:00,
2013-04-21 23:37:00,49.6,43.7,29.30,NNE,22,0.0,0.0,80,0.00,,,0.00,WeatherCatV1.10B1784,2013-04-22 06:37:00,
2013-04-21 23:40:00,69.4,51.0,29.08,NNE,22,0.0,0.0,52,0.00,,,0.00,LWC V2.11 B50,2013-04-22 06:40:00,
2013-04-21 23:42:00,49.3,43.3,29.30,NE,45,0.0,0.0,80,0.00,,,0.00,WeatherCatV1.10B1784,2013-04-22 06:42:00,
2013-04-21 23:47:00,49.3,43.3,29.30,NE,45,0.0,0.0,80,0.00,,,0.00,WeatherCatV1.10B1784,2013-04-22 06:47:00,
2013-04-21 23:50:00,69.4,51.0,29.08,NNE,22,0.0,0.0,52,0.00,,,0.00,LWC V2.11 B50,2013-04-22 06:50:00,
2013-04-21 23:52:00,49.3,43.3,29.30,NE,45,0.0,0.0,80,0.00,,,0.00,WeatherCatV1.10B1784,2013-04-22 06:52:00,
2013-04-21 23:57:00,49.1,43.2,29.30,East,90,0.0,0.0,80,0.00,,,0.00,WeatherCatV1.10B1784,2013-04-22 06:57:00,